Time;durP1;ratioP1;P1;durP2;ratioP2;P2;SDS_P1;SDS_P2;PMS_P1;PMS_P2;Temp;Humidity;BMP_temperature;BMP_pressure;BME280_temperature;BME280_humidity;BME280_pressure;Samples;Min_cycle;Max_cycle;Signal;HPM_P1;HPM_P2
2021/10/19 00:01:22;;;;;;;16.30;7.45;;;;;;;;;;5067772;28;20045;-65
2021/10/19 00:03:50;;;;;;;14.65;7.70;;;;;;;;;;5066681;28;20049;-65
2021/10/19 00:06:18;;;;;;;15.68;8.60;;;;;;;;;;5069412;28;20484;-65
2021/10/19 00:08:47;;;;;;;15.88;7.35;;;;;;;;;;5071172;28;20052;-68
2021/10/19 00:11:15;;;;;;;14.88;7.93;;;;;;;;;;5056262;28;20256;-65
2021/10/19 00:13:43;;;;;;;15.55;8.02;;;;;;;;;;5054888;28;20083;-65
2021/10/19 00:16:13;;;;;;;13.57;7.10;;;;;;;;;;5056494;28;20411;-65
2021/10/19 00:18:41;;;;;;;14.80;7.25;;;;;;;;;;5063786;28;20068;-68
2021/10/19 00:21:10;;;;;;;14.60;7.75;;;;;;;;;;5070561;28;20134;-65
2021/10/19 00:23:38;;;;;;;15.55;7.03;;;;;;;;;;5078948;28;20053;-65
2021/10/19 00:26:06;;;;;;;12.73;7.10;;;;;;;;;;5072102;28;20539;-65
2021/10/19 00:28:35;;;;;;;12.88;7.10;;;;;;;;;;5064726;28;20572;-65
2021/10/19 00:31:03;;;;;;;15.90;8.15;;;;;;;;;;5079479;28;20131;-65
2021/10/19 00:33:33;;;;;;;13.57;7.10;;;;;;;;;;5071841;28;20048;-66
2021/10/19 00:36:01;;;;;;;13.52;6.68;;;;;;;;;;5071276;28;20048;-65
2021/10/19 00:38:29;;;;;;;14.70;7.03;;;;;;;;;;5072663;28;20068;-65
2021/10/19 00:40:58;;;;;;;13.15;7.35;;;;;;;;;;5072772;28;20132;-66
2021/10/19 00:43:26;;;;;;;13.68;7.03;;;;;;;;;;5074706;28;20051;-68
2021/10/19 00:45:55;;;;;;;12.52;6.70;;;;;;;;;;5080638;28;20159;-65
2021/10/19 00:48:25;;;;;;;12.65;6.85;;;;;;;;;;5069409;28;20125;-68
2021/10/19 00:50:56;;;;;;;15.55;7.47;;;;;;;;;;5065859;28;20453;-66
2021/10/19 00:53:25;;;;;;;13.68;7.70;;;;;;;;;;5080145;28;20044;-65
2021/10/19 00:55:54;;;;;;;12.30;6.93;;;;;;;;;;5071774;28;20385;-67
2021/10/19 00:58:22;;;;;;;12.43;6.72;;;;;;;;;;5069535;28;20048;-66
2021/10/19 01:00:50;;;;;;;13.52;7.68;;;;;;;;;;5072689;28;20064;-67
2021/10/19 01:03:19;;;;;;;13.70;6.22;;;;;;;;;;5073103;28;20049;-69
2021/10/19 01:05:48;;;;;;;11.70;6.88;;;;;;;;;;5080342;28;20048;-67
2021/10/19 01:08:17;;;;;;;14.25;7.22;;;;;;;;;;5074081;28;20048;-66
2021/10/19 01:10:46;;;;;;;14.73;7.07;;;;;;;;;;5071611;28;20332;-69
2021/10/19 01:13:14;;;;;;;13.38;7.03;;;;;;;;;;5070205;28;20057;-67
2021/10/19 01:15:45;;;;;;;13.20;6.93;;;;;;;;;;5068255;28;20058;-67
2021/10/19 01:18:15;;;;;;;10.88;6.45;;;;;;;;;;5076979;28;20074;-65
2021/10/19 01:20:45;;;;;;;12.23;6.78;;;;;;;;;;5061267;28;20057;-65
2021/10/19 01:23:13;;;;;;;13.88;7.22;;;;;;;;;;5057196;28;20551;-66
2021/10/19 01:25:42;;;;;;;12.45;7.20;;;;;;;;;;5063342;28;20136;-68
2021/10/19 01:28:11;;;;;;;15.25;7.10;;;;;;;;;;5062251;28;20076;-67
2021/10/19 01:30:43;;;;;;;15.50;7.35;;;;;;;;;;5057701;28;20055;-66
2021/10/19 01:33:11;;;;;;;12.18;5.85;;;;;;;;;;5063147;28;20128;-65
2021/10/19 01:35:40;;;;;;;17.75;8.07;;;;;;;;;;5056099;28;20124;-65
2021/10/19 01:38:12;;;;;;;15.77;6.95;;;;;;;;;;5054748;28;20461;-65
2021/10/19 01:40:59;;;;;;;11.92;4.48;;;;;;;;;;4187603;28;10002038;-67
2021/10/19 01:43:28;;;;;;;13.55;6.68;;;;;;;;;;1744788;28;10002145;-67
2021/10/19 01:45:57;;;;;;;13.15;7.00;;;;;;;;;;5060675;28;20089;-68
2021/10/19 01:48:26;;;;;;;12.25;6.75;;;;;;;;;;5067388;28;20049;-67
2021/10/19 01:50:54;;;;;;;11.93;6.35;;;;;;;;;;5078576;28;20051;-65
2021/10/19 01:53:24;;;;;;;13.93;7.32;;;;;;;;;;5064417;28;20202;-65
2021/10/19 01:55:53;;;;;;;13.45;7.10;;;;;;;;;;5071628;28;20052;-66
2021/10/19 01:58:24;;;;;;;13.65;6.38;;;;;;;;;;5070852;28;20238;-65
2021/10/19 02:00:53;;;;;;;12.98;6.22;;;;;;;;;;5068658;28;20131;-65
2021/10/19 02:03:21;;;;;;;13.48;6.93;;;;;;;;;;5059099;28;20431;-66
2021/10/19 02:05:50;;;;;;;11.93;6.47;;;;;;;;;;5068769;28;20110;-67
2021/10/19 02:08:19;;;;;;;12.30;6.82;;;;;;;;;;5069625;28;20044;-65
2021/10/19 02:10:48;;;;;;;14.27;7.70;;;;;;;;;;5070598;28;20611;-65
2021/10/19 02:13:16;;;;;;;13.85;7.25;;;;;;;;;;5068136;28;20055;-65
2021/10/19 02:15:45;;;;;;;11.48;6.65;;;;;;;;;;5066696;28;20054;-69
2021/10/19 02:18:13;;;;;;;10.95;6.25;;;;;;;;;;5070580;28;20147;-68
2021/10/19 02:20:41;;;;;;;12.93;6.47;;;;;;;;;;5063092;28;20571;-66
2021/10/19 02:23:10;;;;;;;11.35;6.03;;;;;;;;;;5066674;28;20127;-65
2021/10/19 02:25:38;;;;;;;9.93;6.18;;;;;;;;;;5070208;28;20055;-68
2021/10/19 02:28:08;;;;;;;12.55;6.47;;;;;;;;;;5067785;28;20048;-66
2021/10/19 02:30:36;;;;;;;11.90;6.45;;;;;;;;;;5064017;28;20480;-66
2021/10/19 02:33:04;;;;;;;10.10;6.53;;;;;;;;;;5062005;28;20048;-65
2021/10/19 02:35:33;;;;;;;12.15;7.03;;;;;;;;;;5079884;28;20127;-67
2021/10/19 02:38:01;;;;;;;12.13;5.75;;;;;;;;;;5071246;28;20062;-68
2021/10/19 02:40:29;;;;;;;12.57;6.72;;;;;;;;;;5071232;28;20046;-68
2021/10/19 02:42:57;;;;;;;13.07;6.18;;;;;;;;;;5066575;28;20131;-70
2021/10/19 02:45:27;;;;;;;11.60;6.13;;;;;;;;;;5068405;28;20173;-67
2021/10/19 02:47:55;;;;;;;12.25;5.65;;;;;;;;;;5070512;28;20048;-68
2021/10/19 02:50:24;;;;;;;13.27;6.43;;;;;;;;;;5064859;28;20069;-65
2021/10/19 02:52:52;;;;;;;16.35;6.28;;;;;;;;;;5081327;28;20075;-65
2021/10/19 02:55:20;;;;;;;10.38;6.13;;;;;;;;;;5066629;28;20051;-65
2021/10/19 02:57:49;;;;;;;16.67;7.70;;;;;;;;;;5070662;28;20056;-65
2021/10/19 03:00:17;;;;;;;13.13;6.10;;;;;;;;;;5069572;28;20048;-65
2021/10/19 03:02:47;;;;;;;13.23;6.35;;;;;;;;;;5068477;28;20603;-67
2021/10/19 03:05:16;;;;;;;11.20;6.32;;;;;;;;;;5067864;28;20048;-67
2021/10/19 03:07:44;;;;;;;11.02;5.55;;;;;;;;;;5056404;28;20084;-64
2021/10/19 03:10:14;;;;;;;14.02;5.90;;;;;;;;;;5059731;28;20046;-64
2021/10/19 03:12:42;;;;;;;11.45;5.63;;;;;;;;;;5068344;28;20056;-65
2021/10/19 03:15:11;;;;;;;10.95;5.38;;;;;;;;;;5068007;28;20048;-68
2021/10/19 03:17:39;;;;;;;12.93;6.07;;;;;;;;;;5063919;28;20059;-66
2021/10/19 03:20:09;;;;;;;11.45;6.43;;;;;;;;;;5067471;28;20466;-67
2021/10/19 03:22:37;;;;;;;11.57;6.05;;;;;;;;;;5068743;28;20592;-66
2021/10/19 03:25:06;;;;;;;15.07;6.55;;;;;;;;;;5057754;28;20084;-68
2021/10/19 03:27:34;;;;;;;12.18;6.18;;;;;;;;;;5065031;28;20555;-66
2021/10/19 03:30:03;;;;;;;11.65;5.78;;;;;;;;;;5068259;28;20051;-66
2021/10/19 03:32:31;;;;;;;11.27;6.13;;;;;;;;;;5066197;28;20127;-66
2021/10/19 03:34:59;;;;;;;12.48;5.32;;;;;;;;;;5066162;28;20127;-65
2021/10/19 03:37:29;;;;;;;8.55;5.40;;;;;;;;;;5068224;28;20051;-66
2021/10/19 03:39:57;;;;;;;11.65;5.93;;;;;;;;;;5068833;28;20063;-70
2021/10/19 03:42:25;;;;;;;11.63;5.78;;;;;;;;;;5065592;28;20118;-66
2021/10/19 03:44:54;;;;;;;10.73;5.88;;;;;;;;;;5067346;28;20053;-69
2021/10/19 03:47:22;;;;;;;12.85;6.03;;;;;;;;;;5067579;28;20069;-67
2021/10/19 03:49:50;;;;;;;11.63;5.55;;;;;;;;;;5069497;28;20135;-65
2021/10/19 03:52:19;;;;;;;11.25;6.22;;;;;;;;;;5070714;28;20472;-65
2021/10/19 03:54:48;;;;;;;12.27;6.20;;;;;;;;;;5063659;28;20041;-66
2021/10/19 03:57:16;;;;;;;12.95;5.63;;;;;;;;;;5070871;28;20041;-67
2021/10/19 03:59:45;;;;;;;11.55;5.28;;;;;;;;;;5064608;28;20049;-69
2021/10/19 04:02:13;;;;;;;11.88;5.50;;;;;;;;;;5067332;28;20131;-66
2021/10/19 04:04:41;;;;;;;12.63;5.70;;;;;;;;;;5079111;28;20056;-67
2021/10/19 04:07:11;;;;;;;11.20;5.47;;;;;;;;;;5078768;28;20055;-66
2021/10/19 04:09:39;;;;;;;11.90;5.70;;;;;;;;;;5069433;28;20072;-66
2021/10/19 04:12:09;;;;;;;10.85;5.43;;;;;;;;;;5073886;28;20128;-66
2021/10/19 04:14:37;;;;;;;13.00;5.28;;;;;;;;;;5070384;28;20116;-66
2021/10/19 04:17:05;;;;;;;9.57;4.97;;;;;;;;;;5069479;28;20044;-66
2021/10/19 04:19:34;;;;;;;9.60;5.80;;;;;;;;;;5071573;28;20053;-66
2021/10/19 04:22:02;;;;;;;10.77;6.18;;;;;;;;;;5077201;28;20067;-68
2021/10/19 04:24:30;;;;;;;9.82;5.32;;;;;;;;;;5064933;28;20041;-67
2021/10/19 04:26:58;;;;;;;10.18;5.32;;;;;;;;;;5073846;28;20239;-67
2021/10/19 04:29:28;;;;;;;7.95;4.60;;;;;;;;;;5070650;28;20055;-69
2021/10/19 04:31:56;;;;;;;10.02;4.90;;;;;;;;;;5062820;28;20137;-68
2021/10/19 04:34:25;;;;;;;11.25;5.53;;;;;;;;;;5064496;28;20052;-68
2021/10/19 04:36:53;;;;;;;11.63;5.18;;;;;;;;;;5080897;28;20074;-68
2021/10/19 04:39:21;;;;;;;12.15;5.82;;;;;;;;;;5076349;28;20048;-67
2021/10/19 04:41:51;;;;;;;10.48;4.72;;;;;;;;;;5071616;28;20127;-65
2021/10/19 04:44:19;;;;;;;9.27;5.10;;;;;;;;;;5070747;28;20070;-65
2021/10/19 04:46:49;;;;;;;12.23;5.35;;;;;;;;;;5071821;28;20067;-66
2021/10/19 04:49:17;;;;;;;10.05;4.97;;;;;;;;;;5068062;28;20175;-68
2021/10/19 04:51:45;;;;;;;8.65;4.38;;;;;;;;;;5070013;28;20057;-65
2021/10/19 04:54:14;;;;;;;9.35;4.78;;;;;;;;;;5073746;28;20041;-65
2021/10/19 04:56:42;;;;;;;8.88;4.57;;;;;;;;;;5070425;28;20151;-68
2021/10/19 04:59:10;;;;;;;10.15;5.03;;;;;;;;;;5065838;28;20147;-71
2021/10/19 05:01:38;;;;;;;8.82;4.55;;;;;;;;;;5069830;28;20044;-65
2021/10/19 05:04:14;;;;;;;10.48;5.45;;;;;;;;;;5067862;28;20048;-68
2021/10/19 05:06:42;;;;;;;9.75;4.85;;;;;;;;;;5055813;28;20059;-67
2021/10/19 05:09:10;;;;;;;12.10;5.32;;;;;;;;;;5061497;28;20127;-66
2021/10/19 05:11:39;;;;;;;11.68;5.18;;;;;;;;;;5068278;28;20056;-66
2021/10/19 05:14:07;;;;;;;11.35;5.30;;;;;;;;;;5063546;28;20139;-68
2021/10/19 05:16:35;;;;;;;9.63;4.93;;;;;;;;;;5064743;28;20378;-66
2021/10/19 05:19:04;;;;;;;9.13;4.43;;;;;;;;;;5064721;28;20539;-65
2021/10/19 05:21:33;;;;;;;10.43;4.72;;;;;;;;;;5054270;28;20142;-66
2021/10/19 05:24:02;;;;;;;10.10;5.10;;;;;;;;;;5061965;28;20139;-67
2021/10/19 05:26:30;;;;;;;9.00;4.32;;;;;;;;;;5067655;28;20159;-66
2021/10/19 05:28:58;;;;;;;8.60;4.20;;;;;;;;;;5053332;28;20063;-67
2021/10/19 05:31:26;;;;;;;7.20;4.55;;;;;;;;;;5050311;28;20155;-67
2021/10/19 05:33:55;;;;;;;8.68;5.10;;;;;;;;;;5054507;28;20066;-67
2021/10/19 05:36:23;;;;;;;8.48;4.68;;;;;;;;;;5065011;28;20465;-65
2021/10/19 05:38:53;;;;;;;9.95;4.78;;;;;;;;;;5068848;28;20135;-66
2021/10/19 05:41:21;;;;;;;8.18;4.57;;;;;;;;;;5066242;28;20064;-65
2021/10/19 05:43:50;;;;;;;9.88;4.20;;;;;;;;;;5067456;28;20119;-66
2021/10/19 05:46:18;;;;;;;7.70;4.47;;;;;;;;;;5060866;28;20784;-66
2021/10/19 05:48:46;;;;;;;9.50;4.28;;;;;;;;;;5059658;28;20039;-66
2021/10/19 05:51:15;;;;;;;9.30;4.47;;;;;;;;;;5063133;28;20071;-71
2021/10/19 05:53:43;;;;;;;10.90;4.78;;;;;;;;;;5065042;28;20070;-66
2021/10/19 05:56:12;;;;;;;7.28;3.83;;;;;;;;;;5065913;28;20045;-66
2021/10/19 05:58:41;;;;;;;10.25;4.60;;;;;;;;;;5066659;28;20111;-67
2021/10/19 06:01:10;;;;;;;11.15;4.80;;;;;;;;;;5067222;28;20040;-68
2021/10/19 06:03:39;;;;;;;10.27;4.70;;;;;;;;;;5066145;28;20049;-67
2021/10/19 06:06:13;;;;;;;7.60;4.18;;;;;;;;;;5065482;28;20363;-69
2021/10/19 06:08:42;;;;;;;9.27;4.43;;;;;;;;;;5070422;28;20489;-67
2021/10/19 06:11:10;;;;;;;9.20;4.78;;;;;;;;;;5071029;28;20040;-66
2021/10/19 06:13:40;;;;;;;9.55;4.15;;;;;;;;;;5067096;28;20052;-66
2021/10/19 06:16:09;;;;;;;9.55;4.78;;;;;;;;;;5069772;28;20048;-68
2021/10/19 06:18:38;;;;;;;8.88;4.30;;;;;;;;;;5066977;28;20477;-66
2021/10/19 06:21:09;;;;;;;11.32;5.22;;;;;;;;;;5064237;28;20055;-67
2021/10/19 06:23:37;;;;;;;9.88;4.15;;;;;;;;;;5069284;28;20131;-67
2021/10/19 06:26:07;;;;;;;9.77;4.15;;;;;;;;;;5071130;28;20356;-66
2021/10/19 06:28:35;;;;;;;6.95;3.83;;;;;;;;;;5068157;28;20044;-65
2021/10/19 06:31:05;;;;;;;7.60;4.13;;;;;;;;;;5067470;28;20044;-66
2021/10/19 06:33:35;;;;;;;10.55;4.15;;;;;;;;;;5067166;28;20049;-67
2021/10/19 06:36:04;;;;;;;9.15;4.13;;;;;;;;;;5069748;28;20143;-69
2021/10/19 06:38:33;;;;;;;8.73;4.25;;;;;;;;;;5071090;28;20135;-66
2021/10/19 06:41:01;;;;;;;11.15;4.18;;;;;;;;;;5071421;28;20054;-66
2021/10/19 06:43:29;;;;;;;8.55;4.25;;;;;;;;;;5069449;28;20131;-66
2021/10/19 06:45:57;;;;;;;6.85;3.97;;;;;;;;;;5070779;28;20080;-67
2021/10/19 06:48:27;;;;;;;9.07;4.30;;;;;;;;;;5065658;28;20567;-66
2021/10/19 06:50:56;;;;;;;7.70;3.67;;;;;;;;;;5066973;28;20125;-66
2021/10/19 06:53:27;;;;;;;6.43;3.40;;;;;;;;;;5066091;28;20099;-69
2021/10/19 06:55:56;;;;;;;6.05;3.78;;;;;;;;;;5067652;28;20056;-65
2021/10/19 06:58:25;;;;;;;7.55;3.75;;;;;;;;;;5067569;28;20563;-65
2021/10/19 07:00:53;;;;;;;7.97;3.63;;;;;;;;;;5070906;28;20087;-65
2021/10/19 07:03:24;;;;;;;6.25;4.10;;;;;;;;;;5066385;28;20139;-69
2021/10/19 07:05:54;;;;;;;5.53;3.55;;;;;;;;;;5060078;28;20045;-65
2021/10/19 07:08:23;;;;;;;7.63;3.50;;;;;;;;;;5066896;28;20640;-65
2021/10/19 07:10:52;;;;;;;6.20;3.00;;;;;;;;;;5069892;28;20052;-65
2021/10/19 07:13:23;;;;;;;7.03;3.83;;;;;;;;;;5059505;28;20128;-66
2021/10/19 07:15:54;;;;;;;5.55;3.15;;;;;;;;;;5071193;28;20052;-65
2021/10/19 07:18:22;;;;;;;7.20;3.83;;;;;;;;;;5072748;28;20723;-66
2021/10/19 07:20:51;;;;;;;9.07;3.78;;;;;;;;;;5062036;28;20508;-65
2021/10/19 07:23:21;;;;;;;8.18;4.45;;;;;;;;;;5060652;28;20072;-67
2021/10/19 07:25:51;;;;;;;6.60;3.17;;;;;;;;;;5068342;28;20044;-66
2021/10/19 07:28:19;;;;;;;5.95;3.35;;;;;;;;;;5067703;28;20503;-65
2021/10/19 07:30:48;;;;;;;8.20;3.30;;;;;;;;;;5059610;28;20064;-65
2021/10/19 07:33:18;;;;;;;6.70;3.13;;;;;;;;;;5073783;28;20066;-65
2021/10/19 07:35:46;;;;;;;5.32;2.92;;;;;;;;;;5084309;28;20124;-66
2021/10/19 07:38:15;;;;;;;6.10;2.80;;;;;;;;;;5055956;28;20045;-66
2021/10/19 07:40:45;;;;;;;6.15;3.53;;;;;;;;;;5064218;28;20135;-66
2021/10/19 07:43:14;;;;;;;6.50;2.83;;;;;;;;;;5068991;28;20098;-66
2021/10/19 07:45:43;;;;;;;10.07;3.45;;;;;;;;;;5063905;28;20485;-67
2021/10/19 07:48:11;;;;;;;5.57;2.80;;;;;;;;;;5055127;28;20132;-65
2021/10/19 07:50:44;;;;;;;7.85;3.17;;;;;;;;;;5058185;28;20481;-66
2021/10/19 07:53:13;;;;;;;5.80;3.25;;;;;;;;;;5066820;28;20125;-65
2021/10/19 07:55:41;;;;;;;9.10;3.15;;;;;;;;;;5063802;28;20076;-66
2021/10/19 07:58:11;;;;;;;7.40;3.22;;;;;;;;;;5067944;28;20040;-65
2021/10/19 08:00:39;;;;;;;6.07;3.00;;;;;;;;;;5064585;28;20076;-66
2021/10/19 08:03:08;;;;;;;5.57;2.90;;;;;;;;;;5050763;28;20051;-67
2021/10/19 08:05:37;;;;;;;8.65;2.72;;;;;;;;;;5069752;28;20103;-66
2021/10/19 08:08:06;;;;;;;6.38;3.38;;;;;;;;;;5069533;28;20051;-66
2021/10/19 08:10:34;;;;;;;5.50;2.80;;;;;;;;;;5069017;28;20135;-66
2021/10/19 08:13:03;;;;;;;7.55;2.90;;;;;;;;;;5061986;28;20784;-65
2021/10/19 08:15:33;;;;;;;5.35;3.00;;;;;;;;;;5061245;28;20118;-65
2021/10/19 08:18:02;;;;;;;5.72;2.80;;;;;;;;;;5068605;28;20041;-66
2021/10/19 08:20:31;;;;;;;5.45;2.42;;;;;;;;;;5064350;28;20040;-65
2021/10/19 08:22:59;;;;;;;4.85;2.70;;;;;;;;;;5068433;28;20102;-66
2021/10/19 08:25:28;;;;;;;5.35;2.38;;;;;;;;;;5068574;28;20045;-67
2021/10/19 08:27:56;;;;;;;7.07;3.00;;;;;;;;;;5067483;28;20048;-66
2021/10/19 08:30:25;;;;;;;5.07;2.53;;;;;;;;;;5059799;28;20079;-65
2021/10/19 08:32:56;;;;;;;6.10;3.15;;;;;;;;;;5062512;28;20455;-65
2021/10/19 08:35:24;;;;;;;4.53;2.67;;;;;;;;;;5062128;28;20041;-69
2021/10/19 08:37:53;;;;;;;7.43;3.22;;;;;;;;;;5063443;28;20048;-68
2021/10/19 08:40:23;;;;;;;5.53;2.78;;;;;;;;;;5070761;28;20056;-65
2021/10/19 08:42:52;;;;;;;6.20;2.80;;;;;;;;;;5068426;28;20503;-68
2021/10/19 08:45:22;;;;;;;5.07;2.80;;;;;;;;;;5064646;28;20480;-67
2021/10/19 08:47:51;;;;;;;4.18;2.63;;;;;;;;;;5059581;28;20127;-66
2021/10/19 08:50:22;;;;;;;6.03;2.50;;;;;;;;;;5067801;28;20044;-68
2021/10/19 08:52:51;;;;;;;5.25;2.78;;;;;;;;;;5063971;28;20136;-64
2021/10/19 08:55:19;;;;;;;6.50;2.55;;;;;;;;;;5065641;28;20044;-65
2021/10/19 08:57:48;;;;;;;9.02;2.80;;;;;;;;;;5060715;28;20041;-66
2021/10/19 09:00:16;;;;;;;9.13;2.78;;;;;;;;;;5067308;28;20109;-67
2021/10/19 09:02:45;;;;;;;5.15;2.55;;;;;;;;;;5070423;28;20045;-65
2021/10/19 09:05:15;;;;;;;6.63;2.75;;;;;;;;;;5061401;28;20792;-64
2021/10/19 09:07:55;;;;;;;6.93;2.78;;;;;;;;;;5070211;28;20083;-68
2021/10/19 09:10:23;;;;;;;7.95;3.28;;;;;;;;;;5068485;28;20076;-65
2021/10/19 09:12:52;;;;;;;4.32;2.63;;;;;;;;;;5070396;28;20488;-65
2021/10/19 09:15:22;;;;;;;5.00;2.42;;;;;;;;;;5066348;28;20040;-66
2021/10/19 09:17:50;;;;;;;5.40;2.55;;;;;;;;;;5062675;28;20105;-64
2021/10/19 09:20:19;;;;;;;4.65;2.30;;;;;;;;;;5059310;28;20087;-69
2021/10/19 09:22:57;;;;;;;6.07;3.10;;;;;;;;;;5060036;28;20052;-65
2021/10/19 09:25:30;;;;;;;6.85;3.17;;;;;;;;;;5062870;28;20098;-70
2021/10/19 09:28:00;;;;;;;7.45;2.70;;;;;;;;;;5062797;28;20080;-67
2021/10/19 09:30:39;;;;;;;6.20;2.50;;;;;;;;;;5067478;28;20487;-67
2021/10/19 09:33:08;;;;;;;5.10;2.58;;;;;;;;;;5072518;28;20048;-66
2021/10/19 09:35:37;;;;;;;8.50;3.10;;;;;;;;;;5069855;28;20052;-65
2021/10/19 09:38:09;;;;;;;5.38;2.80;;;;;;;;;;5065922;28;20163;-67
2021/10/19 09:40:39;;;;;;;5.28;2.28;;;;;;;;;;5055833;28;20582;-65
2021/10/19 09:43:09;;;;;;;6.68;2.47;;;;;;;;;;5070348;28;20102;-68
2021/10/19 09:45:40;;;;;;;7.35;2.65;;;;;;;;;;5061709;28;20071;-67
2021/10/19 09:48:12;;;;;;;5.68;2.63;;;;;;;;;;5062589;28;20083;-68
2021/10/19 09:50:41;;;;;;;4.85;2.28;;;;;;;;;;5062414;28;20111;-68
2021/10/19 09:53:12;;;;;;;9.32;2.83;;;;;;;;;;5062609;28;20063;-65
2021/10/19 09:55:41;;;;;;;9.40;2.78;;;;;;;;;;5060231;28;20086;-65
2021/10/19 09:58:10;;;;;;;5.65;2.55;;;;;;;;;;5063068;28;20048;-65
2021/10/19 10:00:38;;;;;;;5.55;2.50;;;;;;;;;;5060767;28;20143;-67
2021/10/19 10:03:07;;;;;;;4.95;2.28;;;;;;;;;;5056905;28;20151;-69
2021/10/19 10:05:36;;;;;;;7.57;2.35;;;;;;;;;;5055815;28;20044;-67
2021/10/19 10:08:05;;;;;;;5.75;2.25;;;;;;;;;;5061517;28;20488;-65
2021/10/19 10:10:36;;;;;;;7.43;2.30;;;;;;;;;;5058310;28;20087;-66
2021/10/19 10:13:05;;;;;;;5.45;2.30;;;;;;;;;;5056147;28;20048;-66
2021/10/19 10:15:35;;;;;;;6.70;2.75;;;;;;;;;;5066418;28;20136;-68
2021/10/19 10:18:05;;;;;;;5.28;2.00;;;;;;;;;;5062541;28;20060;-69
2021/10/19 10:20:35;;;;;;;6.03;2.42;;;;;;;;;;5058929;28;20194;-67
2021/10/19 10:23:15;;;;;;;6.18;2.38;;;;;;;;;;5068957;28;20067;-65
2021/10/19 10:25:44;;;;;;;4.30;2.13;;;;;;;;;;5052688;28;20424;-66
2021/10/19 10:28:15;;;;;;;4.93;2.30;;;;;;;;;;5065944;28;20055;-66
2021/10/19 10:30:44;;;;;;;5.95;2.63;;;;;;;;;;5064172;28;20048;-66
2021/10/19 10:33:12;;;;;;;4.93;2.38;;;;;;;;;;5073486;28;20591;-65
2021/10/19 10:35:44;;;;;;;5.28;2.45;;;;;;;;;;5066072;28;20091;-68
2021/10/19 10:38:13;;;;;;;5.20;2.10;;;;;;;;;;5067540;28;20446;-65
2021/10/19 10:40:43;;;;;;;3.50;2.13;;;;;;;;;;5068214;28;20056;-66
2021/10/19 10:43:31;;;;;;;3.45;2.00;;;;;;;;;;5065905;28;20474;-68
2021/10/19 10:46:04;;;;;;;4.78;2.30;;;;;;;;;;5059317;28;20146;-68
2021/10/19 10:48:32;;;;;;;5.80;2.00;;;;;;;;;;5060479;28;20055;-68
2021/10/19 10:51:01;;;;;;;3.45;2.00;;;;;;;;;;5057721;28;20059;-68
2021/10/19 10:53:34;;;;;;;8.65;2.33;;;;;;;;;;5059263;28;20132;-65
2021/10/19 10:56:03;;;;;;;5.38;2.13;;;;;;;;;;5061352;28;20079;-67
2021/10/19 10:58:34;;;;;;;4.15;2.17;;;;;;;;;;5066305;28;20710;-70
2021/10/19 11:01:13;;;;;;;5.57;2.42;;;;;;;;;;5056697;28;20481;-67
2021/10/19 11:03:42;;;;;;;4.30;1.95;;;;;;;;;;5056974;28;20048;-66
2021/10/19 11:06:13;;;;;;;4.63;2.00;;;;;;;;;;5059886;28;20068;-69
2021/10/19 11:08:41;;;;;;;5.72;1.77;;;;;;;;;;5064096;28;20512;-66
2021/10/19 11:11:11;;;;;;;6.07;2.22;;;;;;;;;;5066121;28;20057;-65
2021/10/19 11:13:48;;;;;;;5.13;2.38;;;;;;;;;;5063670;28;20571;-70
2021/10/19 11:16:16;;;;;;;3.90;1.60;;;;;;;;;;5064101;28;20048;-66
2021/10/19 11:18:45;;;;;;;3.80;2.03;;;;;;;;;;5063567;28;20388;-66
2021/10/19 11:21:13;;;;;;;4.90;2.30;;;;;;;;;;5054202;28;20049;-64
2021/10/19 11:23:42;;;;;;;4.88;2.13;;;;;;;;;;5051737;28;20091;-65
2021/10/19 11:26:11;;;;;;;3.78;2.17;;;;;;;;;;5061099;28;20052;-65
2021/10/19 11:28:41;;;;;;;5.45;1.90;;;;;;;;;;5063789;28;20133;-67
2021/10/19 11:31:11;;;;;;;5.00;2.00;;;;;;;;;;5066376;28;20131;-66
2021/10/19 11:33:40;;;;;;;6.57;2.17;;;;;;;;;;5068018;28;20055;-67
2021/10/19 11:36:09;;;;;;;3.35;1.75;;;;;;;;;;5055528;28;20056;-65
2021/10/19 11:38:42;;;;;;;4.00;2.15;;;;;;;;;;5060951;28;20131;-65
2021/10/19 11:41:11;;;;;;;6.80;2.17;;;;;;;;;;5066814;28;20049;-66
2021/10/19 11:43:40;;;;;;;2.80;1.63;;;;;;;;;;5063795;28;20068;-65
2021/10/19 11:46:10;;;;;;;4.40;2.10;;;;;;;;;;5065834;28;20053;-66
2021/10/19 11:48:41;;;;;;;4.30;1.95;;;;;;;;;;5066650;28;20099;-65
2021/10/19 11:51:11;;;;;;;6.03;2.20;;;;;;;;;;5062903;28;20056;-65
2021/10/19 11:53:40;;;;;;;8.45;2.42;;;;;;;;;;5057290;28;20098;-68
2021/10/19 11:56:10;;;;;;;4.93;1.88;;;;;;;;;;5056322;28;20102;-68
2021/10/19 11:58:48;;;;;;;5.07;1.92;;;;;;;;;;5059397;28;20171;-64
2021/10/19 12:01:19;;;;;;;6.57;2.60;;;;;;;;;;5056867;28;20049;-66
2021/10/19 12:03:57;;;;;;;5.53;2.47;;;;;;;;;;5056383;28;20072;-66
2021/10/19 12:06:26;;;;;;;4.97;2.53;;;;;;;;;;5066238;28;20165;-65
2021/10/19 12:08:55;;;;;;;5.50;2.47;;;;;;;;;;5066087;28;20082;-67
2021/10/19 12:11:25;;;;;;;4.10;1.80;;;;;;;;;;5061629;28;20067;-67
2021/10/19 12:13:57;;;;;;;4.65;1.92;;;;;;;;;;5062356;28;20083;-65
2021/10/19 12:16:27;;;;;;;4.50;2.28;;;;;;;;;;5051707;28;20522;-64
2021/10/19 12:18:58;;;;;;;6.43;2.33;;;;;;;;;;5062135;28;20090;-65
2021/10/19 12:21:27;;;;;;;5.43;2.10;;;;;;;;;;5059608;28;20563;-67
2021/10/19 12:23:57;;;;;;;6.15;2.20;;;;;;;;;;5061075;28;20053;-66
2021/10/19 12:26:26;;;;;;;5.75;2.10;;;;;;;;;;5065074;28;20115;-66
2021/10/19 12:28:56;;;;;;;3.85;1.98;;;;;;;;;;5064972;28;20099;-66
2021/10/19 12:31:25;;;;;;;3.90;2.00;;;;;;;;;;5061423;28;20036;-64
2021/10/19 12:33:55;;;;;;;5.32;2.00;;;;;;;;;;5059332;28;20500;-65
2021/10/19 12:36:28;;;;;;;7.13;2.28;;;;;;;;;;5067497;28;20403;-67
2021/10/19 12:38:58;;;;;;;3.60;1.70;;;;;;;;;;5067547;28;20117;-67
2021/10/19 12:41:27;;;;;;;6.35;2.13;;;;;;;;;;5071567;28;20107;-68
2021/10/19 12:43:58;;;;;;;4.93;1.92;;;;;;;;;;5060496;28;20118;-64
2021/10/19 12:46:27;;;;;;;5.90;1.90;;;;;;;;;;5060521;28;20060;-65
2021/10/19 12:48:58;;;;;;;5.53;1.98;;;;;;;;;;5070029;28;20044;-64
2021/10/19 12:51:28;;;;;;;4.72;1.70;;;;;;;;;;5062115;28;20064;-64
2021/10/19 12:53:57;;;;;;;3.33;1.70;;;;;;;;;;5058698;28;20409;-68
2021/10/19 12:56:27;;;;;;;5.72;1.90;;;;;;;;;;5065155;28;20247;-65
2021/10/19 12:58:57;;;;;;;6.38;2.03;;;;;;;;;;5079530;28;20060;-68
2021/10/19 13:01:26;;;;;;;4.80;2.10;;;;;;;;;;5066755;28;20084;-66
2021/10/19 13:03:56;;;;;;;6.57;2.47;;;;;;;;;;5068880;28;20508;-66
2021/10/19 13:06:25;;;;;;;8.00;2.13;;;;;;;;;;5081809;28;20047;-64
2021/10/19 13:08:55;;;;;;;5.35;1.95;;;;;;;;;;5072321;28;20044;-65
2021/10/19 13:11:24;;;;;;;6.70;2.00;;;;;;;;;;5083844;28;20466;-67
2021/10/19 13:13:52;;;;;;;5.75;2.30;;;;;;;;;;5074046;28;20566;-65
2021/10/19 13:16:21;;;;;;;5.32;1.95;;;;;;;;;;5069125;28;20052;-65
2021/10/19 13:18:50;;;;;;;6.22;2.17;;;;;;;;;;5068127;28;20501;-68
2021/10/19 13:21:19;;;;;;;7.55;2.20;;;;;;;;;;5072244;28;20128;-65
2021/10/19 13:23:49;;;;;;;3.20;1.70;;;;;;;;;;5074595;28;20104;-67
2021/10/19 13:26:20;;;;;;;3.22;1.50;;;;;;;;;;5068906;28;20096;-66
2021/10/19 13:28:48;;;;;;;4.30;2.33;;;;;;;;;;5068578;28;20488;-65
2021/10/19 13:31:17;;;;;;;5.88;2.05;;;;;;;;;;5072464;28;20465;-64
2021/10/19 13:33:45;;;;;;;5.38;2.30;;;;;;;;;;5068692;28;20048;-64
2021/10/19 13:36:14;;;;;;;6.65;2.22;;;;;;;;;;5068204;28;20058;-65
2021/10/19 13:38:43;;;;;;;6.60;2.03;;;;;;;;;;5076085;28;20106;-66
2021/10/19 13:41:12;;;;;;;4.32;2.50;;;;;;;;;;5068257;28;20076;-68
2021/10/19 13:43:41;;;;;;;5.75;2.20;;;;;;;;;;5068876;28;20116;-65
2021/10/19 13:46:10;;;;;;;5.95;2.00;;;;;;;;;;5068514;28;20135;-65
2021/10/19 13:48:38;;;;;;;10.27;2.10;;;;;;;;;;5057846;28;20051;-66
2021/10/19 13:51:07;;;;;;;4.25;2.15;;;;;;;;;;5063693;28;20388;-65
2021/10/19 13:53:36;;;;;;;3.83;1.85;;;;;;;;;;5056081;28;20095;-64
2021/10/19 13:56:05;;;;;;;5.18;2.30;;;;;;;;;;5049806;28;20102;-66
2021/10/19 13:58:33;;;;;;;3.90;2.08;;;;;;;;;;5058251;28;20052;-65
2021/10/19 14:01:03;;;;;;;3.60;1.90;;;;;;;;;;5051225;28;20057;-64
2021/10/19 14:03:32;;;;;;;5.03;1.95;;;;;;;;;;5065320;28;20084;-64
2021/10/19 14:06:01;;;;;;;4.07;2.00;;;;;;;;;;5058641;28;20484;-65
2021/10/19 14:08:29;;;;;;;3.70;2.05;;;;;;;;;;5064789;28;20044;-67
2021/10/19 14:11:00;;;;;;;3.50;1.98;;;;;;;;;;5071315;28;20127;-64
2021/10/19 14:13:29;;;;;;;4.82;2.22;;;;;;;;;;5078092;28;20056;-66
2021/10/19 14:15:58;;;;;;;6.28;2.03;;;;;;;;;;5071390;28;20052;-64
2021/10/19 14:18:28;;;;;;;3.67;1.80;;;;;;;;;;5070235;28;20055;-64
2021/10/19 14:20:56;;;;;;;5.88;2.63;;;;;;;;;;5066759;28;20052;-65
2021/10/19 14:23:24;;;;;;;4.30;2.13;;;;;;;;;;5073685;28;20051;-66
2021/10/19 14:25:54;;;;;;;6.97;2.00;;;;;;;;;;5071183;28;20048;-64
2021/10/19 14:28:23;;;;;;;3.85;2.00;;;;;;;;;;5075652;28;20056;-64
2021/10/19 14:30:51;;;;;;;4.15;1.85;;;;;;;;;;5069764;28;20508;-65
2021/10/19 14:33:21;;;;;;;3.08;1.63;;;;;;;;;;5056647;28;20138;-68
2021/10/19 14:35:51;;;;;;;3.58;1.88;;;;;;;;;;5067235;28;20452;-66
2021/10/19 14:38:20;;;;;;;6.72;1.90;;;;;;;;;;5077221;28;20323;-64
2021/10/19 14:40:48;;;;;;;2.90;1.70;;;;;;;;;;5071445;28;20044;-64
2021/10/19 14:43:16;;;;;;;4.35;1.67;;;;;;;;;;5069294;28;20049;-64
2021/10/19 14:45:45;;;;;;;4.28;1.98;;;;;;;;;;5070210;28;20057;-65
2021/10/19 14:48:14;;;;;;;3.70;1.75;;;;;;;;;;5068751;28;20048;-64
2021/10/19 14:50:42;;;;;;;5.10;1.95;;;;;;;;;;5070333;28;20055;-64